sensor_id;sensor_type;location;lat;lon;timestamp;P1;durP1;ratioP1;P2;durP2;ratioP2
54871;SDS011;43914;57.680;11.982;2023-12-22T00:00:02;8.90;;;1.80;;
54871;SDS011;43914;57.680;11.982;2023-12-22T00:02:28;7.00;;;1.80;;
54871;SDS011;43914;57.680;11.982;2023-12-22T00:04:53;8.40;;;1.80;;
54871;SDS011;43914;57.680;11.982;2023-12-22T00:07:19;9.50;;;1.90;;
54871;SDS011;43914;57.680;11.982;2023-12-22T00:09:45;9.20;;;1.80;;
54871;SDS011;43914;57.680;11.982;2023-12-22T00:12:10;9.00;;;2.60;;
54871;SDS011;43914;57.680;11.982;2023-12-22T00:14:36;8.10;;;1.80;;
54871;SDS011;43914;57.680;11.982;2023-12-22T00:17:03;5.90;;;1.90;;
54871;SDS011;43914;57.680;11.982;2023-12-22T00:19:29;6.70;;;1.70;;
54871;SDS011;43914;57.680;11.982;2023-12-22T00:21:54;8.10;;;1.80;;
54871;SDS011;43914;57.680;11.982;2023-12-22T00:24:20;9.90;;;2.00;;
54871;SDS011;43914;57.680;11.982;2023-12-22T00:26:45;8.70;;;1.80;;
54871;SDS011;43914;57.680;11.982;2023-12-22T00:29:11;6.60;;;1.50;;
54871;SDS011;43914;57.680;11.982;2023-12-22T00:31:36;6.80;;;1.90;;
54871;SDS011;43914;57.680;11.982;2023-12-22T00:34:02;7.30;;;1.70;;
54871;SDS011;43914;57.680;11.982;2023-12-22T00:36:28;7.00;;;1.80;;
54871;SDS011;43914;57.680;11.982;2023-12-22T00:38:53;6.10;;;1.60;;
54871;SDS011;43914;57.680;11.982;2023-12-22T00:41:18;8.70;;;1.70;;
54871;SDS011;43914;57.680;11.982;2023-12-22T00:43:44;8.30;;;1.80;;
54871;SDS011;43914;57.680;11.982;2023-12-22T00:46:13;7.00;;;1.70;;
54871;SDS011;43914;57.680;11.982;2023-12-22T00:48:39;8.40;;;2.10;;
54871;SDS011;43914;57.680;11.982;2023-12-22T00:51:05;4.90;;;1.50;;
54871;SDS011;43914;57.680;11.982;2023-12-22T00:53:33;8.40;;;2.00;;
54871;SDS011;43914;57.680;11.982;2023-12-22T00:55:59;5.90;;;1.50;;
54871;SDS011;43914;57.680;11.982;2023-12-22T00:58:25;6.40;;;2.20;;
54871;SDS011;43914;57.680;11.982;2023-12-22T01:00:51;8.30;;;1.80;;
54871;SDS011;43914;57.680;11.982;2023-12-22T01:03:16;5.20;;;1.60;;
54871;SDS011;43914;57.680;11.982;2023-12-22T01:05:42;4.90;;;1.70;;
54871;SDS011;43914;57.680;11.982;2023-12-22T01:08:07;6.80;;;1.70;;
54871;SDS011;43914;57.680;11.982;2023-12-22T01:10:33;5.40;;;1.50;;
54871;SDS011;43914;57.680;11.982;2023-12-22T01:12:58;7.20;;;1.70;;
54871;SDS011;43914;57.680;11.982;2023-12-22T01:15:24;6.20;;;1.60;;
54871;SDS011;43914;57.680;11.982;2023-12-22T01:17:51;5.20;;;1.60;;
54871;SDS011;43914;57.680;11.982;2023-12-22T01:20:16;6.60;;;1.80;;
54871;SDS011;43914;57.680;11.982;2023-12-22T01:22:42;5.70;;;1.50;;
54871;SDS011;43914;57.680;11.982;2023-12-22T01:25:07;7.70;;;1.80;;
54871;SDS011;43914;57.680;11.982;2023-12-22T01:27:33;6.80;;;2.00;;
54871;SDS011;43914;57.680;11.982;2023-12-22T01:29:58;7.20;;;1.60;;
54871;SDS011;43914;57.680;11.982;2023-12-22T01:32:24;6.40;;;1.90;;
54871;SDS011;43914;57.680;11.982;2023-12-22T01:34:49;5.40;;;1.70;;
54871;SDS011;43914;57.680;11.982;2023-12-22T01:37:15;5.00;;;1.40;;
54871;SDS011;43914;57.680;11.982;2023-12-22T01:39:40;6.90;;;1.80;;
54871;SDS011;43914;57.680;11.982;2023-12-22T01:42:06;11.20;;;1.70;;
54871;SDS011;43914;57.680;11.982;2023-12-22T01:44:31;5.70;;;1.60;;
54871;SDS011;43914;57.680;11.982;2023-12-22T01:46:57;5.90;;;1.30;;
54871;SDS011;43914;57.680;11.982;2023-12-22T01:49:24;5.30;;;1.50;;
54871;SDS011;43914;57.680;11.982;2023-12-22T01:51:50;5.90;;;1.60;;
54871;SDS011;43914;57.680;11.982;2023-12-22T01:54:17;5.80;;;1.50;;
54871;SDS011;43914;57.680;11.982;2023-12-22T01:56:47;5.50;;;1.40;;
54871;SDS011;43914;57.680;11.982;2023-12-22T01:59:13;6.30;;;1.60;;
54871;SDS011;43914;57.680;11.982;2023-12-22T02:01:39;6.30;;;1.70;;
54871;SDS011;43914;57.680;11.982;2023-12-22T02:04:06;6.30;;;1.50;;
54871;SDS011;43914;57.680;11.982;2023-12-22T02:06:32;6.20;;;1.80;;
54871;SDS011;43914;57.680;11.982;2023-12-22T02:09:01;6.00;;;1.60;;
54871;SDS011;43914;57.680;11.982;2023-12-22T02:11:29;6.80;;;1.70;;
54871;SDS011;43914;57.680;11.982;2023-12-22T02:13:55;5.70;;;1.40;;
54871;SDS011;43914;57.680;11.982;2023-12-22T02:16:22;5.90;;;1.60;;
54871;SDS011;43914;57.680;11.982;2023-12-22T02:18:57;6.00;;;1.40;;
54871;SDS011;43914;57.680;11.982;2023-12-22T02:21:26;5.50;;;1.40;;
54871;SDS011;43914;57.680;11.982;2023-12-22T02:23:52;5.40;;;1.40;;
54871;SDS011;43914;57.680;11.982;2023-12-22T02:26:25;6.20;;;1.60;;
54871;SDS011;43914;57.680;11.982;2023-12-22T02:28:55;6.20;;;1.50;;
54871;SDS011;43914;57.680;11.982;2023-12-22T02:31:26;6.00;;;1.50;;
54871;SDS011;43914;57.680;11.982;2023-12-22T02:34:03;7.10;;;1.40;;
54871;SDS011;43914;57.680;11.982;2023-12-22T02:36:34;4.50;;;1.20;;
54871;SDS011;43914;57.680;11.982;2023-12-22T02:39:01;6.10;;;1.30;;
54871;SDS011;43914;57.680;11.982;2023-12-22T02:41:28;7.70;;;1.90;;
54871;SDS011;43914;57.680;11.982;2023-12-22T02:43:54;5.40;;;1.50;;
54871;SDS011;43914;57.680;11.982;2023-12-22T02:46:20;5.70;;;1.60;;
54871;SDS011;43914;57.680;11.982;2023-12-22T02:48:46;4.90;;;1.40;;
54871;SDS011;43914;57.680;11.982;2023-12-22T02:51:11;5.00;;;1.50;;
54871;SDS011;43914;57.680;11.982;2023-12-22T02:53:37;6.60;;;1.40;;
54871;SDS011;43914;57.680;11.982;2023-12-22T02:56:02;4.60;;;1.30;;
54871;SDS011;43914;57.680;11.982;2023-12-22T02:58:28;4.80;;;1.40;;
54871;SDS011;43914;57.680;11.982;2023-12-22T03:00:53;5.10;;;1.30;;
54871;SDS011;43914;57.680;11.982;2023-12-22T03:03:19;4.50;;;1.30;;
54871;SDS011;43914;57.680;11.982;2023-12-22T03:05:44;4.90;;;1.50;;
54871;SDS011;43914;57.680;11.982;2023-12-22T03:08:10;7.00;;;1.60;;
54871;SDS011;43914;57.680;11.982;2023-12-22T03:10:35;6.10;;;1.30;;
54871;SDS011;43914;57.680;11.982;2023-12-22T03:13:01;7.50;;;1.70;;
54871;SDS011;43914;57.680;11.982;2023-12-22T03:15:27;5.70;;;1.40;;
54871;SDS011;43914;57.680;11.982;2023-12-22T03:17:54;5.00;;;1.30;;
54871;SDS011;43914;57.680;11.982;2023-12-22T03:20:19;5.10;;;1.50;;
54871;SDS011;43914;57.680;11.982;2023-12-22T03:22:45;5.40;;;1.30;;
54871;SDS011;43914;57.680;11.982;2023-12-22T03:25:10;6.00;;;1.70;;
54871;SDS011;43914;57.680;11.982;2023-12-22T03:27:36;5.70;;;1.40;;
54871;SDS011;43914;57.680;11.982;2023-12-22T03:30:01;4.90;;;1.50;;
54871;SDS011;43914;57.680;11.982;2023-12-22T03:32:28;6.50;;;1.50;;
54871;SDS011;43914;57.680;11.982;2023-12-22T03:34:54;5.50;;;1.40;;
54871;SDS011;43914;57.680;11.982;2023-12-22T03:37:19;4.70;;;1.40;;
54871;SDS011;43914;57.680;11.982;2023-12-22T03:39:45;7.60;;;1.50;;
54871;SDS011;43914;57.680;11.982;2023-12-22T03:42:10;6.00;;;1.50;;
54871;SDS011;43914;57.680;11.982;2023-12-22T03:44:36;4.40;;;1.40;;
54871;SDS011;43914;57.680;11.982;2023-12-22T03:47:01;5.90;;;1.50;;
54871;SDS011;43914;57.680;11.982;2023-12-22T03:49:27;5.30;;;1.40;;
54871;SDS011;43914;57.680;11.982;2023-12-22T03:51:53;4.30;;;1.40;;
54871;SDS011;43914;57.680;11.982;2023-12-22T03:54:18;6.20;;;1.70;;
54871;SDS011;43914;57.680;11.982;2023-12-22T03:56:44;5.60;;;1.60;;
54871;SDS011;43914;57.680;11.982;2023-12-22T03:59:09;7.10;;;1.60;;
54871;SDS011;43914;57.680;11.982;2023-12-22T04:01:35;4.30;;;1.50;;
54871;SDS011;43914;57.680;11.982;2023-12-22T04:04:03;4.50;;;1.40;;
54871;SDS011;43914;57.680;11.982;2023-12-22T04:06:32;7.30;;;1.60;;
54871;SDS011;43914;57.680;11.982;2023-12-22T04:08:58;5.10;;;1.60;;
54871;SDS011;43914;57.680;11.982;2023-12-22T04:11:24;4.70;;;1.30;;
54871;SDS011;43914;57.680;11.982;2023-12-22T04:13:49;4.90;;;1.50;;
54871;SDS011;43914;57.680;11.982;2023-12-22T04:16:15;7.40;;;1.70;;
54871;SDS011;43914;57.680;11.982;2023-12-22T04:18:43;4.00;;;1.30;;
54871;SDS011;43914;57.680;11.982;2023-12-22T04:21:09;5.90;;;1.70;;
54871;SDS011;43914;57.680;11.982;2023-12-22T04:23:35;4.10;;;1.30;;
54871;SDS011;43914;57.680;11.982;2023-12-22T04:26:04;5.90;;;1.50;;
54871;SDS011;43914;57.680;11.982;2023-12-22T04:28:30;4.70;;;1.20;;
54871;SDS011;43914;57.680;11.982;2023-12-22T04:30:55;5.60;;;1.50;;
54871;SDS011;43914;57.680;11.982;2023-12-22T04:33:21;4.80;;;1.30;;
54871;SDS011;43914;57.680;11.982;2023-12-22T04:35:47;5.50;;;1.60;;
54871;SDS011;43914;57.680;11.982;2023-12-22T04:38:12;4.40;;;1.30;;
54871;SDS011;43914;57.680;11.982;2023-12-22T04:40:38;6.40;;;1.60;;
54871;SDS011;43914;57.680;11.982;2023-12-22T04:43:04;5.00;;;1.30;;
54871;SDS011;43914;57.680;11.982;2023-12-22T04:45:29;4.70;;;1.40;;
54871;SDS011;43914;57.680;11.982;2023-12-22T04:47:55;4.90;;;1.40;;
54871;SDS011;43914;57.680;11.982;2023-12-22T04:50:20;5.60;;;1.50;;
54871;SDS011;43914;57.680;11.982;2023-12-22T04:52:46;4.40;;;1.30;;
54871;SDS011;43914;57.680;11.982;2023-12-22T04:55:11;5.70;;;1.90;;
54871;SDS011;43914;57.680;11.982;2023-12-22T04:57:37;6.30;;;1.80;;
54871;SDS011;43914;57.680;11.982;2023-12-22T05:00:05;5.70;;;1.50;;
54871;SDS011;43914;57.680;11.982;2023-12-22T05:02:32;6.40;;;1.80;;
54871;SDS011;43914;57.680;11.982;2023-12-22T05:04:57;5.40;;;1.50;;
54871;SDS011;43914;57.680;11.982;2023-12-22T05:07:23;4.50;;;1.20;;
54871;SDS011;43914;57.680;11.982;2023-12-22T05:09:48;4.90;;;1.40;;
54871;SDS011;43914;57.680;11.982;2023-12-22T05:12:14;4.80;;;1.40;;
54871;SDS011;43914;57.680;11.982;2023-12-22T05:14:39;4.70;;;1.40;;
54871;SDS011;43914;57.680;11.982;2023-12-22T05:17:05;4.80;;;1.40;;
54871;SDS011;43914;57.680;11.982;2023-12-22T05:19:30;4.40;;;1.20;;
54871;SDS011;43914;57.680;11.982;2023-12-22T05:21:56;3.80;;;1.20;;
54871;SDS011;43914;57.680;11.982;2023-12-22T05:24:22;5.80;;;1.40;;
54871;SDS011;43914;57.680;11.982;2023-12-22T05:26:48;4.30;;;1.20;;
54871;SDS011;43914;57.680;11.982;2023-12-22T05:29:13;4.80;;;1.40;;
54871;SDS011;43914;57.680;11.982;2023-12-22T05:31:39;4.90;;;1.40;;
54871;SDS011;43914;57.680;11.982;2023-12-22T05:34:05;5.20;;;1.50;;
54871;SDS011;43914;57.680;11.982;2023-12-22T05:36:31;5.80;;;1.50;;
54871;SDS011;43914;57.680;11.982;2023-12-22T05:38:56;6.40;;;1.40;;
54871;SDS011;43914;57.680;11.982;2023-12-22T05:41:22;5.60;;;1.40;;
54871;SDS011;43914;57.680;11.982;2023-12-22T05:43:48;5.30;;;1.40;;
54871;SDS011;43914;57.680;11.982;2023-12-22T05:46:14;5.60;;;1.40;;
54871;SDS011;43914;57.680;11.982;2023-12-22T05:48:39;4.70;;;1.40;;
54871;SDS011;43914;57.680;11.982;2023-12-22T05:51:06;4.40;;;1.20;;
54871;SDS011;43914;57.680;11.982;2023-12-22T05:53:41;4.60;;;1.30;;
54871;SDS011;43914;57.680;11.982;2023-12-22T05:56:20;5.00;;;1.40;;
54871;SDS011;43914;57.680;11.982;2023-12-22T05:58:46;4.40;;;1.40;;
54871;SDS011;43914;57.680;11.982;2023-12-22T06:01:19;5.10;;;1.40;;
54871;SDS011;43914;57.680;11.982;2023-12-22T06:03:46;6.00;;;1.60;;
54871;SDS011;43914;57.680;11.982;2023-12-22T06:06:12;5.60;;;1.60;;
54871;SDS011;43914;57.680;11.982;2023-12-22T06:08:38;4.90;;;1.50;;
54871;SDS011;43914;57.680;11.982;2023-12-22T06:11:04;5.70;;;1.40;;
54871;SDS011;43914;57.680;11.982;2023-12-22T06:13:30;4.20;;;1.30;;
54871;SDS011;43914;57.680;11.982;2023-12-22T06:15:56;4.70;;;1.30;;
54871;SDS011;43914;57.680;11.982;2023-12-22T06:18:22;5.90;;;1.50;;
54871;SDS011;43914;57.680;11.982;2023-12-22T06:20:47;5.40;;;1.70;;
54871;SDS011;43914;57.680;11.982;2023-12-22T06:23:13;6.40;;;1.90;;
54871;SDS011;43914;57.680;11.982;2023-12-22T06:25:39;5.10;;;1.40;;
54871;SDS011;43914;57.680;11.982;2023-12-22T06:28:04;4.90;;;1.40;;
54871;SDS011;43914;57.680;11.982;2023-12-22T06:30:33;6.10;;;1.70;;
54871;SDS011;43914;57.680;11.982;2023-12-22T06:32:58;5.30;;;1.60;;
54871;SDS011;43914;57.680;11.982;2023-12-22T06:35:25;5.00;;;1.50;;
54871;SDS011;43914;57.680;11.982;2023-12-22T06:37:51;5.50;;;1.70;;
54871;SDS011;43914;57.680;11.982;2023-12-22T06:40:17;4.80;;;1.50;;
54871;SDS011;43914;57.680;11.982;2023-12-22T06:42:45;5.40;;;1.60;;
54871;SDS011;43914;57.680;11.982;2023-12-22T06:45:12;5.70;;;1.80;;
54871;SDS011;43914;57.680;11.982;2023-12-22T06:47:37;6.50;;;1.80;;
54871;SDS011;43914;57.680;11.982;2023-12-22T06:50:03;5.30;;;1.60;;
54871;SDS011;43914;57.680;11.982;2023-12-22T06:52:29;5.80;;;1.60;;
54871;SDS011;43914;57.680;11.982;2023-12-22T06:54:56;5.90;;;1.70;;
54871;SDS011;43914;57.680;11.982;2023-12-22T06:57:22;5.20;;;1.70;;
54871;SDS011;43914;57.680;11.982;2023-12-22T06:59:48;6.50;;;1.70;;
54871;SDS011;43914;57.680;11.982;2023-12-22T07:02:15;6.50;;;2.00;;
54871;SDS011;43914;57.680;11.982;2023-12-22T07:07:50;6.50;;;1.90;;
54871;SDS011;43914;57.680;11.982;2023-12-22T07:10:15;6.00;;;1.80;;
54871;SDS011;43914;57.680;11.982;2023-12-22T07:12:41;5.50;;;1.80;;
54871;SDS011;43914;57.680;11.982;2023-12-22T07:15:07;6.50;;;2.20;;
54871;SDS011;43914;57.680;11.982;2023-12-22T07:17:34;6.00;;;1.80;;
54871;SDS011;43914;57.680;11.982;2023-12-22T07:20:00;6.20;;;1.80;;
54871;SDS011;43914;57.680;11.982;2023-12-22T07:22:28;5.50;;;1.80;;
54871;SDS011;43914;57.680;11.982;2023-12-22T07:24:54;6.50;;;1.80;;
54871;SDS011;43914;57.680;11.982;2023-12-22T07:27:20;6.50;;;1.70;;
54871;SDS011;43914;57.680;11.982;2023-12-22T07:29:46;5.70;;;1.70;;
54871;SDS011;43914;57.680;11.982;2023-12-22T07:32:12;5.60;;;1.80;;
54871;SDS011;43914;57.680;11.982;2023-12-22T07:34:37;5.40;;;1.80;;
54871;SDS011;43914;57.680;11.982;2023-12-22T07:37:03;6.80;;;2.00;;
54871;SDS011;43914;57.680;11.982;2023-12-22T07:39:32;6.30;;;2.00;;
54871;SDS011;43914;57.680;11.982;2023-12-22T07:41:57;6.90;;;2.00;;
54871;SDS011;43914;57.680;11.982;2023-12-22T07:44:23;8.20;;;1.80;;
54871;SDS011;43914;57.680;11.982;2023-12-22T07:46:56;6.20;;;2.00;;
54871;SDS011;43914;57.680;11.982;2023-12-22T07:49:23;5.50;;;1.70;;
54871;SDS011;43914;57.680;11.982;2023-12-22T07:51:49;8.00;;;1.90;;
54871;SDS011;43914;57.680;11.982;2023-12-22T07:54:17;7.10;;;2.00;;
54871;SDS011;43914;57.680;11.982;2023-12-22T07:56:44;6.50;;;2.00;;
54871;SDS011;43914;57.680;11.982;2023-12-22T07:59:09;6.50;;;1.70;;
54871;SDS011;43914;57.680;11.982;2023-12-22T08:01:35;8.40;;;2.30;;
54871;SDS011;43914;57.680;11.982;2023-12-22T08:04:00;8.20;;;2.00;;
54871;SDS011;43914;57.680;11.982;2023-12-22T08:06:26;7.40;;;2.20;;
54871;SDS011;43914;57.680;11.982;2023-12-22T08:08:51;7.50;;;2.20;;
54871;SDS011;43914;57.680;11.982;2023-12-22T08:11:17;5.90;;;2.00;;
54871;SDS011;43914;57.680;11.982;2023-12-22T08:13:43;7.00;;;2.00;;
54871;SDS011;43914;57.680;11.982;2023-12-22T08:16:09;6.90;;;2.00;;
54871;SDS011;43914;57.680;11.982;2023-12-22T08:18:35;7.70;;;2.50;;
54871;SDS011;43914;57.680;11.982;2023-12-22T08:21:12;12.00;;;3.30;;
54871;SDS011;43914;57.680;11.982;2023-12-22T08:23:39;7.30;;;2.40;;
54871;SDS011;43914;57.680;11.982;2023-12-22T08:26:04;8.60;;;2.50;;
54871;SDS011;43914;57.680;11.982;2023-12-22T08:28:30;6.20;;;2.00;;
54871;SDS011;43914;57.680;11.982;2023-12-22T08:30:55;8.30;;;2.10;;
54871;SDS011;43914;57.680;11.982;2023-12-22T08:33:21;7.60;;;2.20;;
54871;SDS011;43914;57.680;11.982;2023-12-22T08:35:46;7.10;;;2.40;;
54871;SDS011;43914;57.680;11.982;2023-12-22T08:38:12;7.30;;;2.20;;
54871;SDS011;43914;57.680;11.982;2023-12-22T08:40:38;7.10;;;2.10;;
54871;SDS011;43914;57.680;11.982;2023-12-22T08:43:04;7.20;;;2.10;;
54871;SDS011;43914;57.680;11.982;2023-12-22T08:45:31;6.50;;;2.10;;
54871;SDS011;43914;57.680;11.982;2023-12-22T08:47:57;6.70;;;2.00;;
54871;SDS011;43914;57.680;11.982;2023-12-22T08:50:23;8.60;;;2.50;;
54871;SDS011;43914;57.680;11.982;2023-12-22T08:52:48;7.30;;;2.10;;
54871;SDS011;43914;57.680;11.982;2023-12-22T08:55:14;8.30;;;2.40;;
54871;SDS011;43914;57.680;11.982;2023-12-22T08:57:39;6.50;;;2.20;;
54871;SDS011;43914;57.680;11.982;2023-12-22T09:00:05;9.30;;;2.60;;
54871;SDS011;43914;57.680;11.982;2023-12-22T09:02:34;9.20;;;2.30;;
54871;SDS011;43914;57.680;11.982;2023-12-22T09:05:00;9.20;;;2.70;;
54871;SDS011;43914;57.680;11.982;2023-12-22T09:07:25;7.20;;;2.30;;
54871;SDS011;43914;57.680;11.982;2023-12-22T09:09:51;8.10;;;2.60;;
54871;SDS011;43914;57.680;11.982;2023-12-22T09:12:16;8.60;;;2.70;;
54871;SDS011;43914;57.680;11.982;2023-12-22T09:14:42;7.70;;;2.50;;
54871;SDS011;43914;57.680;11.982;2023-12-22T09:17:07;8.00;;;2.40;;
54871;SDS011;43914;57.680;11.982;2023-12-22T09:19:33;8.30;;;2.80;;
54871;SDS011;43914;57.680;11.982;2023-12-22T09:21:59;7.60;;;2.70;;
54871;SDS011;43914;57.680;11.982;2023-12-22T09:24:25;7.60;;;2.70;;
54871;SDS011;43914;57.680;11.982;2023-12-22T09:26:50;9.20;;;3.10;;
54871;SDS011;43914;57.680;11.982;2023-12-22T09:29:17;8.50;;;2.40;;
54871;SDS011;43914;57.680;11.982;2023-12-22T09:31:43;8.20;;;2.80;;
54871;SDS011;43914;57.680;11.982;2023-12-22T09:34:08;8.00;;;2.70;;
54871;SDS011;43914;57.680;11.982;2023-12-22T09:36:34;7.80;;;2.80;;
54871;SDS011;43914;57.680;11.982;2023-12-22T09:38:59;9.00;;;2.90;;
54871;SDS011;43914;57.680;11.982;2023-12-22T09:41:25;7.30;;;2.50;;
54871;SDS011;43914;57.680;11.982;2023-12-22T09:43:51;9.10;;;2.60;;
54871;SDS011;43914;57.680;11.982;2023-12-22T09:46:18;8.10;;;2.40;;
54871;SDS011;43914;57.680;11.982;2023-12-22T09:48:47;8.30;;;2.40;;
54871;SDS011;43914;57.680;11.982;2023-12-22T09:51:14;8.10;;;2.70;;
54871;SDS011;43914;57.680;11.982;2023-12-22T09:53:42;7.80;;;2.30;;
54871;SDS011;43914;57.680;11.982;2023-12-22T09:56:10;8.50;;;2.40;;
54871;SDS011;43914;57.680;11.982;2023-12-22T09:58:36;7.00;;;2.20;;
54871;SDS011;43914;57.680;11.982;2023-12-22T10:01:09;9.20;;;2.50;;
54871;SDS011;43914;57.680;11.982;2023-12-22T10:03:35;6.70;;;1.90;;
54871;SDS011;43914;57.680;11.982;2023-12-22T10:06:02;7.60;;;2.50;;
54871;SDS011;43914;57.680;11.982;2023-12-22T10:08:28;6.90;;;2.20;;
54871;SDS011;43914;57.680;11.982;2023-12-22T10:10:56;7.00;;;2.20;;
54871;SDS011;43914;57.680;11.982;2023-12-22T10:13:22;8.40;;;2.00;;
54871;SDS011;43914;57.680;11.982;2023-12-22T10:15:53;7.60;;;2.10;;
54871;SDS011;43914;57.680;11.982;2023-12-22T10:18:21;6.70;;;2.00;;
54871;SDS011;43914;57.680;11.982;2023-12-22T10:20:47;7.10;;;1.90;;
54871;SDS011;43914;57.680;11.982;2023-12-22T10:23:13;6.70;;;2.00;;
54871;SDS011;43914;57.680;11.982;2023-12-22T10:25:39;7.10;;;2.10;;
54871;SDS011;43914;57.680;11.982;2023-12-22T10:28:05;6.50;;;2.10;;
54871;SDS011;43914;57.680;11.982;2023-12-22T10:30:35;7.40;;;2.20;;
54871;SDS011;43914;57.680;11.982;2023-12-22T10:33:05;8.50;;;2.20;;
54871;SDS011;43914;57.680;11.982;2023-12-22T10:35:32;7.70;;;2.20;;
54871;SDS011;43914;57.680;11.982;2023-12-22T10:37:58;6.30;;;1.90;;
54871;SDS011;43914;57.680;11.982;2023-12-22T10:40:24;7.10;;;2.00;;
54871;SDS011;43914;57.680;11.982;2023-12-22T10:42:53;6.20;;;1.90;;
54871;SDS011;43914;57.680;11.982;2023-12-22T10:45:19;7.70;;;2.30;;
54871;SDS011;43914;57.680;11.982;2023-12-22T10:47:45;8.70;;;2.50;;
54871;SDS011;43914;57.680;11.982;2023-12-22T10:50:14;6.30;;;2.00;;
54871;SDS011;43914;57.680;11.982;2023-12-22T10:52:39;7.30;;;2.30;;
54871;SDS011;43914;57.680;11.982;2023-12-22T10:55:05;7.40;;;2.30;;
54871;SDS011;43914;57.680;11.982;2023-12-22T10:57:33;7.20;;;2.20;;
54871;SDS011;43914;57.680;11.982;2023-12-22T11:00:10;8.20;;;2.30;;
54871;SDS011;43914;57.680;11.982;2023-12-22T11:02:41;8.40;;;2.30;;
54871;SDS011;43914;57.680;11.982;2023-12-22T11:05:09;9.00;;;2.10;;
54871;SDS011;43914;57.680;11.982;2023-12-22T11:07:37;8.50;;;2.90;;
54871;SDS011;43914;57.680;11.982;2023-12-22T11:10:04;9.70;;;2.80;;
54871;SDS011;43914;57.680;11.982;2023-12-22T11:12:33;8.70;;;2.30;;
54871;SDS011;43914;57.680;11.982;2023-12-22T11:15:01;7.60;;;2.30;;
54871;SDS011;43914;57.680;11.982;2023-12-22T11:17:28;8.10;;;2.40;;
54871;SDS011;43914;57.680;11.982;2023-12-22T11:19:55;9.20;;;2.10;;
54871;SDS011;43914;57.680;11.982;2023-12-22T11:22:21;7.30;;;2.30;;
54871;SDS011;43914;57.680;11.982;2023-12-22T11:24:50;7.80;;;2.00;;
54871;SDS011;43914;57.680;11.982;2023-12-22T11:27:20;7.30;;;2.30;;
54871;SDS011;43914;57.680;11.982;2023-12-22T11:29:49;7.90;;;2.10;;
54871;SDS011;43914;57.680;11.982;2023-12-22T11:32:16;8.00;;;2.30;;
54871;SDS011;43914;57.680;11.982;2023-12-22T11:34:43;8.00;;;2.20;;
54871;SDS011;43914;57.680;11.982;2023-12-22T11:37:10;6.90;;;2.10;;
54871;SDS011;43914;57.680;11.982;2023-12-22T11:39:38;7.10;;;2.20;;
54871;SDS011;43914;57.680;11.982;2023-12-22T11:42:08;7.60;;;2.10;;
54871;SDS011;43914;57.680;11.982;2023-12-22T11:44:41;7.40;;;2.20;;
54871;SDS011;43914;57.680;11.982;2023-12-22T11:47:07;7.70;;;2.30;;
54871;SDS011;43914;57.680;11.982;2023-12-22T11:49:34;7.10;;;2.10;;
54871;SDS011;43914;57.680;11.982;2023-12-22T11:52:13;7.30;;;2.20;;
54871;SDS011;43914;57.680;11.982;2023-12-22T11:54:46;7.30;;;2.00;;
54871;SDS011;43914;57.680;11.982;2023-12-22T12:00:43;6.90;;;2.20;;
54871;SDS011;43914;57.680;11.982;2023-12-22T12:02:46;6.80;;;1.90;;
54871;SDS011;43914;57.680;11.982;2023-12-22T12:07:45;7.90;;;2.10;;
54871;SDS011;43914;57.680;11.982;2023-12-22T12:13:11;6.00;;;1.80;;
54871;SDS011;43914;57.680;11.982;2023-12-22T12:15:41;6.60;;;1.60;;
54871;SDS011;43914;57.680;11.982;2023-12-22T12:18:07;6.50;;;1.70;;
54871;SDS011;43914;57.680;11.982;2023-12-22T12:20:33;5.20;;;1.60;;
54871;SDS011;43914;57.680;11.982;2023-12-22T12:23:03;5.60;;;1.50;;
54871;SDS011;43914;57.680;11.982;2023-12-22T12:25:32;5.60;;;1.60;;
54871;SDS011;43914;57.680;11.982;2023-12-22T12:28:01;5.90;;;1.70;;
54871;SDS011;43914;57.680;11.982;2023-12-22T12:30:27;6.10;;;1.60;;
54871;SDS011;43914;57.680;11.982;2023-12-22T12:32:53;5.80;;;1.60;;
54871;SDS011;43914;57.680;11.982;2023-12-22T12:35:20;6.30;;;1.70;;
54871;SDS011;43914;57.680;11.982;2023-12-22T12:37:49;4.60;;;1.30;;
54871;SDS011;43914;57.680;11.982;2023-12-22T12:40:18;6.80;;;1.80;;
54871;SDS011;43914;57.680;11.982;2023-12-22T12:42:47;5.00;;;1.40;;
54871;SDS011;43914;57.680;11.982;2023-12-22T12:45:12;6.00;;;1.40;;
54871;SDS011;43914;57.680;11.982;2023-12-22T12:47:38;4.80;;;1.40;;
54871;SDS011;43914;57.680;11.982;2023-12-22T12:50:03;5.10;;;1.50;;
54871;SDS011;43914;57.680;11.982;2023-12-22T12:52:29;5.00;;;1.50;;
54871;SDS011;43914;57.680;11.982;2023-12-22T12:54:55;5.80;;;1.50;;
54871;SDS011;43914;57.680;11.982;2023-12-22T12:57:23;4.40;;;1.20;;
54871;SDS011;43914;57.680;11.982;2023-12-22T12:59:49;4.80;;;1.50;;
54871;SDS011;43914;57.680;11.982;2023-12-22T13:02:18;5.10;;;1.40;;
54871;SDS011;43914;57.680;11.982;2023-12-22T13:04:45;5.40;;;1.30;;
54871;SDS011;43914;57.680;11.982;2023-12-22T13:07:11;4.60;;;1.50;;
54871;SDS011;43914;57.680;11.982;2023-12-22T13:09:38;4.90;;;1.40;;
54871;SDS011;43914;57.680;11.982;2023-12-22T13:12:04;5.40;;;1.60;;
54871;SDS011;43914;57.680;11.982;2023-12-22T13:14:31;6.00;;;1.50;;
54871;SDS011;43914;57.680;11.982;2023-12-22T13:16:57;5.80;;;1.70;;
54871;SDS011;43914;57.680;11.982;2023-12-22T13:19:23;5.00;;;1.50;;
54871;SDS011;43914;57.680;11.982;2023-12-22T13:21:53;5.40;;;1.70;;
54871;SDS011;43914;57.680;11.982;2023-12-22T13:24:19;5.90;;;1.70;;
54871;SDS011;43914;57.680;11.982;2023-12-22T13:26:45;5.00;;;1.50;;
54871;SDS011;43914;57.680;11.982;2023-12-22T13:29:12;5.90;;;1.60;;
54871;SDS011;43914;57.680;11.982;2023-12-22T13:31:40;5.50;;;1.70;;
54871;SDS011;43914;57.680;11.982;2023-12-22T13:34:17;6.30;;;2.00;;
54871;SDS011;43914;57.680;11.982;2023-12-22T13:36:42;6.10;;;1.90;;
54871;SDS011;43914;57.680;11.982;2023-12-22T13:39:08;6.40;;;2.00;;
54871;SDS011;43914;57.680;11.982;2023-12-22T13:41:35;6.20;;;1.70;;
54871;SDS011;43914;57.680;11.982;2023-12-22T13:44:05;6.20;;;2.20;;
54871;SDS011;43914;57.680;11.982;2023-12-22T13:46:31;6.20;;;1.90;;
54871;SDS011;43914;57.680;11.982;2023-12-22T13:48:58;6.60;;;2.10;;
54871;SDS011;43914;57.680;11.982;2023-12-22T13:51:24;5.90;;;2.10;;
54871;SDS011;43914;57.680;11.982;2023-12-22T13:53:50;5.80;;;2.00;;
54871;SDS011;43914;57.680;11.982;2023-12-22T13:56:15;7.10;;;2.00;;
54871;SDS011;43914;57.680;11.982;2023-12-22T13:58:46;5.90;;;1.90;;
54871;SDS011;43914;57.680;11.982;2023-12-22T14:01:15;6.10;;;1.90;;
54871;SDS011;43914;57.680;11.982;2023-12-22T14:03:47;6.60;;;2.00;;
54871;SDS011;43914;57.680;11.982;2023-12-22T14:06:12;6.20;;;2.10;;
54871;SDS011;43914;57.680;11.982;2023-12-22T14:08:41;6.00;;;2.10;;
54871;SDS011;43914;57.680;11.982;2023-12-22T14:11:07;6.20;;;2.10;;
54871;SDS011;43914;57.680;11.982;2023-12-22T14:13:33;7.10;;;2.20;;
54871;SDS011;43914;57.680;11.982;2023-12-22T14:16:03;6.60;;;2.20;;
54871;SDS011;43914;57.680;11.982;2023-12-22T14:18:30;6.80;;;2.10;;
54871;SDS011;43914;57.680;11.982;2023-12-22T14:20:55;6.80;;;2.00;;
54871;SDS011;43914;57.680;11.982;2023-12-22T14:23:21;6.00;;;1.90;;
54871;SDS011;43914;57.680;11.982;2023-12-22T14:25:46;6.10;;;2.10;;
54871;SDS011;43914;57.680;11.982;2023-12-22T14:28:12;6.30;;;2.10;;
54871;SDS011;43914;57.680;11.982;2023-12-22T14:30:39;6.70;;;2.30;;
54871;SDS011;43914;57.680;11.982;2023-12-22T14:33:05;6.70;;;2.10;;
54871;SDS011;43914;57.680;11.982;2023-12-22T14:35:30;7.00;;;2.20;;
54871;SDS011;43914;57.680;11.982;2023-12-22T14:37:56;6.00;;;2.10;;
54871;SDS011;43914;57.680;11.982;2023-12-22T14:40:21;7.00;;;2.10;;